sensor_id;sensor_type;location;lat;lon;timestamp;pressure;altitude;pressure_sealevel;temperature;humidity
36092;BME280;22147;52.388;13.390;2022-09-21T00:01:28;101815.38;;;5.26;100.00
36092;BME280;22147;52.388;13.390;2022-09-21T00:04:02;101813.69;;;5.20;100.00
36092;BME280;22147;52.388;13.390;2022-09-21T00:06:33;101820.56;;;5.18;100.00
36092;BME280;22147;52.388;13.390;2022-09-21T00:09:01;101809.59;;;5.23;100.00
36092;BME280;22147;52.388;13.390;2022-09-21T00:11:35;101817.00;;;5.22;100.00
36092;BME280;22147;52.388;13.390;2022-09-21T00:14:09;101812.03;;;5.19;100.00
36092;BME280;22147;52.388;13.390;2022-09-21T00:16:41;101817.00;;;5.17;100.00
36092;BME280;22147;52.388;13.390;2022-09-21T00:19:09;101825.00;;;5.19;100.00
36092;BME280;22147;52.388;13.390;2022-09-21T00:21:38;101821.94;;;5.20;100.00
36092;BME280;22147;52.388;13.390;2022-09-21T00:24:06;101823.31;;;5.18;100.00
36092;BME280;22147;52.388;13.390;2022-09-21T00:26:34;101826.63;;;5.15;100.00
36092;BME280;22147;52.388;13.390;2022-09-21T00:29:03;101824.94;;;5.14;100.00
36092;BME280;22147;52.388;13.390;2022-09-21T00:31:31;101829.06;;;5.11;100.00
36092;BME280;22147;52.388;13.390;2022-09-21T00:33:59;101828.81;;;5.13;100.00
36092;BME280;22147;52.388;13.390;2022-09-21T00:36:27;101831.00;;;5.10;100.00
36092;BME280;22147;52.388;13.390;2022-09-21T00:38:58;101829.81;;;5.01;100.00
36092;BME280;22147;52.388;13.390;2022-09-21T00:41:30;101825.66;;;4.99;100.00
36092;BME280;22147;52.388;13.390;2022-09-21T00:47:35;101822.00;;;4.88;100.00
36092;BME280;22147;52.388;13.390;2022-09-21T00:50:13;101829.13;;;4.84;100.00
36092;BME280;22147;52.388;13.390;2022-09-21T00:52:53;101830.44;;;4.76;100.00
36092;BME280;22147;52.388;13.390;2022-09-21T00:55:40;101838.97;;;4.75;100.00
36092;BME280;22147;52.388;13.390;2022-09-21T00:58:19;101836.00;;;4.81;100.00
36092;BME280;22147;52.388;13.390;2022-09-21T01:00:52;101832.44;;;4.86;100.00
36092;BME280;22147;52.388;13.390;2022-09-21T01:03:20;101833.31;;;4.92;100.00
36092;BME280;22147;52.388;13.390;2022-09-21T01:05:47;101835.75;;;4.83;100.00
36092;BME280;22147;52.388;13.390;2022-09-21T01:08:16;101837.28;;;4.74;100.00
36092;BME280;22147;52.388;13.390;2022-09-21T01:11:03;101830.72;;;4.75;100.00
36092;BME280;22147;52.388;13.390;2022-09-21T01:30:04;101859.53;;;4.67;100.00
36092;BME280;22147;52.388;13.390;2022-09-21T01:33:08;101850.75;;;4.70;100.00
36092;BME280;22147;52.388;13.390;2022-09-21T01:35:52;101852.97;;;4.73;100.00
36092;BME280;22147;52.388;13.390;2022-09-21T01:38:34;101855.41;;;4.69;100.00
36092;BME280;22147;52.388;13.390;2022-09-21T01:41:15;101850.47;;;4.72;100.00
36092;BME280;22147;52.388;13.390;2022-09-21T01:43:57;101851.34;;;4.72;100.00
36092;BME280;22147;52.388;13.390;2022-09-21T01:46:31;101851.84;;;4.69;100.00
36092;BME280;22147;52.388;13.390;2022-09-21T01:49:10;101857.00;;;4.60;100.00
36092;BME280;22147;52.388;13.390;2022-09-21T01:51:50;101860.84;;;4.59;100.00
36092;BME280;22147;52.388;13.390;2022-09-21T01:54:35;101860.00;;;4.59;100.00
36092;BME280;22147;52.388;13.390;2022-09-21T01:57:25;101854.25;;;4.60;100.00
36092;BME280;22147;52.388;13.390;2022-09-21T01:59:57;101862.81;;;4.64;100.00
36092;BME280;22147;52.388;13.390;2022-09-21T02:02:54;101865.22;;;4.55;100.00
36092;BME280;22147;52.388;13.390;2022-09-21T02:05:28;101870.13;;;4.53;100.00
36092;BME280;22147;52.388;13.390;2022-09-21T02:07:59;101861.88;;;4.53;100.00
36092;BME280;22147;52.388;13.390;2022-09-21T02:10:41;101863.53;;;4.54;100.00
36092;BME280;22147;52.388;13.390;2022-09-21T02:13:25;101858.09;;;4.59;100.00
36092;BME280;22147;52.388;13.390;2022-09-21T02:22:12;101853.88;;;4.52;100.00
36092;BME280;22147;52.388;13.390;2022-09-21T02:25:04;101858.59;;;4.56;100.00
36092;BME280;22147;52.388;13.390;2022-09-21T02:27:51;101856.94;;;4.55;100.00
36092;BME280;22147;52.388;13.390;2022-09-21T02:30:25;101858.03;;;4.54;100.00
36092;BME280;22147;52.388;13.390;2022-09-21T02:33:31;101859.16;;;4.58;100.00
36092;BME280;22147;52.388;13.390;2022-09-21T02:36:19;101853.09;;;4.56;100.00
36092;BME280;22147;52.388;13.390;2022-09-21T02:39:54;101852.13;;;4.40;100.00
36092;BME280;22147;52.388;13.390;2022-09-21T02:42:33;101857.50;;;4.30;100.00
36092;BME280;22147;52.388;13.390;2022-09-21T02:45:21;101860.16;;;4.20;100.00
36092;BME280;22147;52.388;13.390;2022-09-21T02:47:59;101857.91;;;4.17;100.00
36092;BME280;22147;52.388;13.390;2022-09-21T02:50:50;101867.75;;;4.13;100.00
36092;BME280;22147;52.388;13.390;2022-09-21T02:53:31;101862.72;;;4.04;100.00
36092;BME280;22147;52.388;13.390;2022-09-21T02:56:06;101865.97;;;4.01;100.00
36092;BME280;22147;52.388;13.390;2022-09-21T02:58:45;101867.66;;;4.02;100.00
36092;BME280;22147;52.388;13.390;2022-09-21T03:01:18;101867.66;;;4.02;100.00
36092;BME280;22147;52.388;13.390;2022-09-21T03:03:47;101879.78;;;4.06;100.00
36092;BME280;22147;52.388;13.390;2022-09-21T03:06:14;101881.50;;;4.13;100.00
36092;BME280;22147;52.388;13.390;2022-09-21T03:08:42;101882.06;;;4.15;100.00
36092;BME280;22147;52.388;13.390;2022-09-21T03:11:09;101890.88;;;4.17;100.00
36092;BME280;22147;52.388;13.390;2022-09-21T03:13:37;101887.41;;;4.21;100.00
36092;BME280;22147;52.388;13.390;2022-09-21T03:16:06;101895.66;;;4.21;100.00
36092;BME280;22147;52.388;13.390;2022-09-21T03:18:33;101885.41;;;4.17;100.00
36092;BME280;22147;52.388;13.390;2022-09-21T03:21:01;101894.53;;;4.22;100.00
36092;BME280;22147;52.388;13.390;2022-09-21T03:23:28;101885.47;;;4.22;100.00
36092;BME280;22147;52.388;13.390;2022-09-21T03:25:56;101888.47;;;4.20;100.00
36092;BME280;22147;52.388;13.390;2022-09-21T03:28:23;101894.22;;;4.19;100.00
36092;BME280;22147;52.388;13.390;2022-09-21T03:30:51;101897.53;;;4.21;100.00
36092;BME280;22147;52.388;13.390;2022-09-21T03:33:19;101889.28;;;4.21;100.00
36092;BME280;22147;52.388;13.390;2022-09-21T03:35:48;101896.38;;;4.17;100.00
36092;BME280;22147;52.388;13.390;2022-09-21T03:38:15;101891.91;;;4.11;100.00
36092;BME280;22147;52.388;13.390;2022-09-21T03:40:47;101894.28;;;4.02;100.00
36092;BME280;22147;52.388;13.390;2022-09-21T03:43:16;101888.72;;;3.97;100.00
36092;BME280;22147;52.388;13.390;2022-09-21T03:45:44;101895.81;;;3.93;100.00
36092;BME280;22147;52.388;13.390;2022-09-21T03:48:11;101888.16;;;3.95;100.00
36092;BME280;22147;52.388;13.390;2022-09-21T03:50:40;101893.31;;;3.91;100.00
36092;BME280;22147;52.388;13.390;2022-09-21T03:53:07;101891.00;;;3.83;100.00
36092;BME280;22147;52.388;13.390;2022-09-21T03:55:35;101886.09;;;3.85;100.00
36092;BME280;22147;52.388;13.390;2022-09-21T03:58:03;101897.41;;;3.88;100.00
36092;BME280;22147;52.388;13.390;2022-09-21T04:00:30;101895.69;;;3.82;100.00
36092;BME280;22147;52.388;13.390;2022-09-21T04:02:58;101898.44;;;3.82;100.00
36092;BME280;22147;52.388;13.390;2022-09-21T04:05:25;101903.34;;;3.80;100.00
36092;BME280;22147;52.388;13.390;2022-09-21T04:07:54;101901.91;;;3.73;100.00
36092;BME280;22147;52.388;13.390;2022-09-21T04:10:24;101896.88;;;3.70;100.00
36092;BME280;22147;52.388;13.390;2022-09-21T04:13:02;101901.03;;;3.72;100.00
36092;BME280;22147;52.388;13.390;2022-09-21T04:15:30;101899.38;;;3.71;100.00
36092;BME280;22147;52.388;13.390;2022-09-21T04:17:57;101901.56;;;3.69;100.00
36092;BME280;22147;52.388;13.390;2022-09-21T04:20:25;101896.56;;;3.66;100.00
36092;BME280;22147;52.388;13.390;2022-09-21T04:22:52;101900.75;;;3.69;100.00
36092;BME280;22147;52.388;13.390;2022-09-21T04:25:19;101907.06;;;3.69;100.00
36092;BME280;22147;52.388;13.390;2022-09-21T04:27:46;101903.53;;;3.74;100.00
36092;BME280;22147;52.388;13.390;2022-09-21T04:30:15;101905.53;;;3.78;100.00
36092;BME280;22147;52.388;13.390;2022-09-21T04:32:43;101901.03;;;3.72;100.00
36092;BME280;22147;52.388;13.390;2022-09-21T04:35:10;101902.31;;;3.64;100.00
36092;BME280;22147;52.388;13.390;2022-09-21T04:37:37;101902.75;;;3.56;100.00
36092;BME280;22147;52.388;13.390;2022-09-21T04:40:06;101898.59;;;3.54;100.00
36092;BME280;22147;52.388;13.390;2022-09-21T04:42:33;101904.34;;;3.52;100.00
36092;BME280;22147;52.388;13.390;2022-09-21T04:45:01;101902.94;;;3.50;100.00
36092;BME280;22147;52.388;13.390;2022-09-21T04:47:30;101903.75;;;3.50;100.00
36092;BME280;22147;52.388;13.390;2022-09-21T04:49:57;101907.09;;;3.52;100.00
36092;BME280;22147;52.388;13.390;2022-09-21T04:52:24;101910.66;;;3.53;100.00
36092;BME280;22147;52.388;13.390;2022-09-21T04:54:51;101913.97;;;3.55;100.00
36092;BME280;22147;52.388;13.390;2022-09-21T04:57:18;101915.16;;;3.59;100.00
36092;BME280;22147;52.388;13.390;2022-09-21T04:59:45;101920.88;;;3.57;100.00
36092;BME280;22147;52.388;13.390;2022-09-21T05:02:12;101924.50;;;3.58;100.00
36092;BME280;22147;52.388;13.390;2022-09-21T05:04:40;101918.13;;;3.57;100.00
36092;BME280;22147;52.388;13.390;2022-09-21T05:07:07;101919.81;;;3.58;100.00
36092;BME280;22147;52.388;13.390;2022-09-21T05:09:34;101922.63;;;3.63;100.00
36092;BME280;22147;52.388;13.390;2022-09-21T05:12:20;101922.72;;;3.69;100.00
36092;BME280;22147;52.388;13.390;2022-09-21T05:14:47;101925.19;;;3.70;100.00
36092;BME280;22147;52.388;13.390;2022-09-21T05:17:17;101929.03;;;3.69;100.00
36092;BME280;22147;52.388;13.390;2022-09-21T05:19:49;101929.94;;;3.75;100.00
36092;BME280;22147;52.388;13.390;2022-09-21T05:22:17;101928.34;;;3.79;100.00
36092;BME280;22147;52.388;13.390;2022-09-21T05:24:44;101938.84;;;3.82;100.00
36092;BME280;22147;52.388;13.390;2022-09-21T05:27:12;101937.50;;;3.84;100.00
36092;BME280;22147;52.388;13.390;2022-09-21T05:29:40;101946.06;;;3.88;100.00
36092;BME280;22147;52.388;13.390;2022-09-21T05:32:36;101947.81;;;3.94;100.00
36092;BME280;22147;52.388;13.390;2022-09-21T05:38:31;101953.16;;;4.06;100.00
36092;BME280;22147;52.388;13.390;2022-09-21T05:40:59;101953.84;;;4.13;100.00
36092;BME280;22147;52.388;13.390;2022-09-21T05:43:27;101951.13;;;4.18;100.00
36092;BME280;22147;52.388;13.390;2022-09-21T05:46:19;101952.53;;;4.21;100.00
36092;BME280;22147;52.388;13.390;2022-09-21T05:52:24;101955.94;;;4.28;100.00
36092;BME280;22147;52.388;13.390;2022-09-21T05:59:25;101961.38;;;4.45;100.00
36092;BME280;22147;52.388;13.390;2022-09-21T06:05:19;101964.47;;;4.76;100.00
36092;BME280;22147;52.388;13.390;2022-09-21T06:07:46;101965.19;;;4.93;100.00
36092;BME280;22147;52.388;13.390;2022-09-21T06:10:14;101963.44;;;5.09;100.00
36092;BME280;22147;52.388;13.390;2022-09-21T06:12:41;101960.28;;;5.27;100.00
36092;BME280;22147;52.388;13.390;2022-09-21T06:15:15;101956.56;;;5.44;100.00
36092;BME280;22147;52.388;13.390;2022-09-21T06:17:42;101963.34;;;5.68;100.00
36092;BME280;22147;52.388;13.390;2022-09-21T06:20:09;101959.38;;;5.91;100.00
36092;BME280;22147;52.388;13.390;2022-09-21T06:22:36;101960.84;;;6.04;100.00
36092;BME280;22147;52.388;13.390;2022-09-21T06:25:04;101957.03;;;6.16;100.00
36092;BME280;22147;52.388;13.390;2022-09-21T06:27:31;101967.59;;;6.29;100.00
36092;BME280;22147;52.388;13.390;2022-09-21T06:29:58;101963.56;;;6.52;100.00
36092;BME280;22147;52.388;13.390;2022-09-21T06:32:27;101967.50;;;6.87;100.00
36092;BME280;22147;52.388;13.390;2022-09-21T06:34:54;101963.13;;;7.17;100.00
36092;BME280;22147;52.388;13.390;2022-09-21T06:37:21;101965.09;;;7.52;100.00
36092;BME280;22147;52.388;13.390;2022-09-21T06:39:48;101966.44;;;7.65;100.00
36092;BME280;22147;52.388;13.390;2022-09-21T06:42:15;101970.88;;;7.71;100.00
36092;BME280;22147;52.388;13.390;2022-09-21T06:44:42;101971.66;;;7.77;100.00
36092;BME280;22147;52.388;13.390;2022-09-21T06:47:09;101976.94;;;7.78;100.00
36092;BME280;22147;52.388;13.390;2022-09-21T06:49:36;101974.16;;;7.88;100.00
36092;BME280;22147;52.388;13.390;2022-09-21T06:52:08;101978.28;;;7.91;100.00
36092;BME280;22147;52.388;13.390;2022-09-21T06:54:35;101982.16;;;7.85;100.00
36092;BME280;22147;52.388;13.390;2022-09-21T06:57:02;101982.72;;;7.92;100.00
36092;BME280;22147;52.388;13.390;2022-09-21T06:59:29;101982.16;;;7.85;100.00
36092;BME280;22147;52.388;13.390;2022-09-21T07:01:56;101983.28;;;7.89;100.00
36092;BME280;22147;52.388;13.390;2022-09-21T07:04:24;101989.09;;;7.92;100.00
36092;BME280;22147;52.388;13.390;2022-09-21T07:06:51;101982.97;;;7.95;100.00
36092;BME280;22147;52.388;13.390;2022-09-21T07:09:18;101989.91;;;7.98;100.00
36092;BME280;22147;52.388;13.390;2022-09-21T07:12:06;101992.63;;;8.08;100.00
36092;BME280;22147;52.388;13.390;2022-09-21T07:14:36;101997.31;;;8.18;100.00
36092;BME280;22147;52.388;13.390;2022-09-21T07:17:03;102002.25;;;8.31;100.00
36092;BME280;22147;52.388;13.390;2022-09-21T07:19:31;102008.63;;;8.37;100.00
36092;BME280;22147;52.388;13.390;2022-09-21T07:21:58;102009.44;;;8.48;100.00
36092;BME280;22147;52.388;13.390;2022-09-21T07:24:25;102008.88;;;8.51;100.00
36092;BME280;22147;52.388;13.390;2022-09-21T07:26:52;102006.31;;;8.65;100.00
36092;BME280;22147;52.388;13.390;2022-09-21T07:29:19;102009.00;;;8.80;100.00
36092;BME280;22147;52.388;13.390;2022-09-21T07:31:46;102001.44;;;8.96;100.00
36092;BME280;22147;52.388;13.390;2022-09-21T07:34:14;102002.78;;;9.04;100.00
36092;BME280;22147;52.388;13.390;2022-09-21T07:36:41;101997.69;;;9.21;100.00
36092;BME280;22147;52.388;13.390;2022-09-21T07:39:09;102008.06;;;9.40;100.00
36092;BME280;22147;52.388;13.390;2022-09-21T07:41:37;102017.97;;;9.51;100.00
36092;BME280;22147;52.388;13.390;2022-09-21T07:44:04;102015.44;;;9.54;100.00
36092;BME280;22147;52.388;13.390;2022-09-21T07:46:31;102007.34;;;9.63;100.00
36092;BME280;22147;52.388;13.390;2022-09-21T07:48:58;102003.69;;;9.68;100.00
36092;BME280;22147;52.388;13.390;2022-09-21T07:51:25;102011.47;;;9.66;100.00
36092;BME280;22147;52.388;13.390;2022-09-21T07:53:55;102008.81;;;9.85;100.00
36092;BME280;22147;52.388;13.390;2022-09-21T07:56:23;102009.28;;;9.92;100.00
36092;BME280;22147;52.388;13.390;2022-09-21T07:58:51;102010.78;;;9.84;100.00
36092;BME280;22147;52.388;13.390;2022-09-21T08:01:40;102015.28;;;10.04;100.00
36092;BME280;22147;52.388;13.390;2022-09-21T08:04:09;102015.47;;;10.13;100.00
36092;BME280;22147;52.388;13.390;2022-09-21T08:06:37;102016.28;;;10.43;100.00
36092;BME280;22147;52.388;13.390;2022-09-21T08:09:07;102015.00;;;10.54;100.00
36092;BME280;22147;52.388;13.390;2022-09-21T08:11:35;102020.56;;;10.54;100.00
36092;BME280;22147;52.388;13.390;2022-09-21T08:14:03;102011.38;;;10.58;100.00
36092;BME280;22147;52.388;13.390;2022-09-21T08:16:31;102018.28;;;10.61;100.00
36092;BME280;22147;52.388;13.390;2022-09-21T08:18:59;102018.00;;;10.63;100.00
36092;BME280;22147;52.388;13.390;2022-09-21T08:21:27;102016.94;;;10.58;100.00
36092;BME280;22147;52.388;13.390;2022-09-21T08:23:54;102025.53;;;10.57;100.00
36092;BME280;22147;52.388;13.390;2022-09-21T08:26:21;102021.41;;;10.54;100.00
36092;BME280;22147;52.388;13.390;2022-09-21T08:28:51;102017.13;;;10.62;100.00
36092;BME280;22147;52.388;13.390;2022-09-21T08:31:21;102020.34;;;10.93;100.00
36092;BME280;22147;52.388;13.390;2022-09-21T08:33:51;102015.47;;;11.23;100.00
36092;BME280;22147;52.388;13.390;2022-09-21T08:36:20;102022.16;;;11.41;100.00
36092;BME280;22147;52.388;13.390;2022-09-21T08:38:47;102021.00;;;11.42;100.00
36092;BME280;22147;52.388;13.390;2022-09-21T08:44:47;102019.38;;;11.41;100.00
36092;BME280;22147;52.388;13.390;2022-09-21T08:56:13;102026.41;;;11.85;100.00
36092;BME280;22147;52.388;13.390;2022-09-21T08:58:42;102021.09;;;11.89;100.00
36092;BME280;22147;52.388;13.390;2022-09-21T09:11:22;102026.19;;;12.14;100.00
36092;BME280;22147;52.388;13.390;2022-09-21T09:21:23;102035.09;;;12.58;100.00
36092;BME280;22147;52.388;13.390;2022-09-21T09:24:19;102027.16;;;12.65;100.00
36092;BME280;22147;52.388;13.390;2022-09-21T09:27:11;102030.75;;;12.66;100.00
36092;BME280;22147;52.388;13.390;2022-09-21T09:30:00;102032.06;;;12.96;100.00
36092;BME280;22147;52.388;13.390;2022-09-21T09:32:49;102033.50;;;13.07;100.00
36092;BME280;22147;52.388;13.390;2022-09-21T09:35:46;102030.69;;;13.21;100.00
36092;BME280;22147;52.388;13.390;2022-09-21T09:38:50;102040.38;;;13.60;100.00
36092;BME280;22147;52.388;13.390;2022-09-21T09:48:33;102032.41;;;14.30;100.00
36092;BME280;22147;52.388;13.390;2022-09-21T09:51:19;102038.31;;;14.28;100.00
36092;BME280;22147;52.388;13.390;2022-09-21T09:53:46;102041.22;;;14.14;100.00
36092;BME280;22147;52.388;13.390;2022-09-21T09:56:13;102037.88;;;14.03;100.00
36092;BME280;22147;52.388;13.390;2022-09-21T09:59:00;102037.88;;;14.03;100.00
36092;BME280;22147;52.388;13.390;2022-09-21T10:01:45;102036.06;;;13.76;100.00
36092;BME280;22147;52.388;13.390;2022-09-21T10:04:23;102036.81;;;13.91;100.00
36092;BME280;22147;52.388;13.390;2022-09-21T10:06:50;102035.84;;;14.27;100.00
36092;BME280;22147;52.388;13.390;2022-09-21T10:09:33;102045.28;;;14.08;100.00
36092;BME280;22147;52.388;13.390;2022-09-21T10:12:22;102034.69;;;13.96;100.00
36092;BME280;22147;52.388;13.390;2022-09-21T10:14:55;102038.88;;;14.08;100.00
36092;BME280;22147;52.388;13.390;2022-09-21T10:17:26;102035.19;;;14.30;100.00
36092;BME280;22147;52.388;13.390;2022-09-21T10:20:02;102030.25;;;14.66;100.00
36092;BME280;22147;52.388;13.390;2022-09-21T10:22:32;102020.81;;;15.11;100.00
36092;BME280;22147;52.388;13.390;2022-09-21T10:24:59;102015.06;;;15.42;99.63
36092;BME280;22147;52.388;13.390;2022-09-21T10:27:41;102023.78;;;15.32;98.46
36092;BME280;22147;52.388;13.390;2022-09-21T10:30:35;102027.88;;;15.09;96.11
36092;BME280;22147;52.388;13.390;2022-09-21T10:33:19;102034.28;;;14.92;96.48
36092;BME280;22147;52.388;13.390;2022-09-21T10:35:51;102017.03;;;15.16;94.61
36092;BME280;22147;52.388;13.390;2022-09-21T10:38:25;102023.13;;;15.26;91.98
36092;BME280;22147;52.388;13.390;2022-09-21T10:40:56;102015.88;;;15.43;88.46
36092;BME280;22147;52.388;13.390;2022-09-21T10:43:44;102016.88;;;15.73;94.80
36092;BME280;22147;52.388;13.390;2022-09-21T10:46:13;102001.53;;;15.71;84.93
36092;BME280;22147;52.388;13.390;2022-09-21T10:48:45;102005.94;;;15.89;83.31
36092;BME280;22147;52.388;13.390;2022-09-21T10:51:29;102000.22;;;15.85;83.81
36092;BME280;22147;52.388;13.390;2022-09-21T10:53:57;102009.44;;;15.60;85.74
36092;BME280;22147;52.388;13.390;2022-09-21T10:56:24;102004.84;;;15.38;87.57
36092;BME280;22147;52.388;13.390;2022-09-21T10:59:21;102007.00;;;15.23;88.97
36092;BME280;22147;52.388;13.390;2022-09-21T11:01:56;102005.19;;;15.27;89.48
36092;BME280;22147;52.388;13.390;2022-09-21T11:04:42;101994.81;;;15.19;87.69
36092;BME280;22147;52.388;13.390;2022-09-21T11:07:21;102000.06;;;14.86;88.33
36092;BME280;22147;52.388;13.390;2022-09-21T11:13:30;101999.38;;;14.72;86.78
36092;BME280;22147;52.388;13.390;2022-09-21T11:16:20;102003.31;;;14.71;87.44
36092;BME280;22147;52.388;13.390;2022-09-21T11:19:34;101997.25;;;14.86;90.32
36092;BME280;22147;52.388;13.390;2022-09-21T11:22:39;101993.47;;;14.82;85.21
36092;BME280;22147;52.388;13.390;2022-09-21T11:28:18;101987.41;;;15.06;79.24
36092;BME280;22147;52.388;13.390;2022-09-21T11:31:40;101999.22;;;14.94;84.34
36092;BME280;22147;52.388;13.390;2022-09-21T11:44:13;102000.34;;;14.27;98.20
36092;BME280;22147;52.388;13.390;2022-09-21T11:50:36;101989.19;;;14.84;93.30
36092;BME280;22147;52.388;13.390;2022-09-21T11:54:03;101978.50;;;15.30;92.71
36092;BME280;22147;52.388;13.390;2022-09-21T12:00:10;101981.28;;;15.65;84.96
36092;BME280;22147;52.388;13.390;2022-09-21T12:06:47;101958.06;;;15.64;83.83
36092;BME280;22147;52.388;13.390;2022-09-21T12:13:00;101965.13;;;15.53;81.19
36092;BME280;22147;52.388;13.390;2022-09-21T12:18:50;101974.72;;;14.82;79.06
36092;BME280;22147;52.388;13.390;2022-09-21T12:22:04;101963.53;;;14.74;79.61
36092;BME280;22147;52.388;13.390;2022-09-21T12:24:52;101961.91;;;15.07;79.42
36092;BME280;22147;52.388;13.390;2022-09-21T12:30:15;101955.75;;;15.75;74.24
36092;BME280;22147;52.388;13.390;2022-09-21T12:35:56;101961.50;;;15.61;76.94
36092;BME280;22147;52.388;13.390;2022-09-21T12:38:52;101962.69;;;15.34;80.10
36092;BME280;22147;52.388;13.390;2022-09-21T12:41:40;101956.94;;;15.13;83.33
36092;BME280;22147;52.388;13.390;2022-09-21T12:44:41;101958.94;;;15.13;82.50
36092;BME280;22147;52.388;13.390;2022-09-21T12:51:04;101948.09;;;15.20;84.22
36092;BME280;22147;52.388;13.390;2022-09-21T12:54:00;101950.53;;;15.21;82.68
36092;BME280;22147;52.388;13.390;2022-09-21T12:57:08;101946.59;;;15.14;83.65
36092;BME280;22147;52.388;13.390;2022-09-21T13:00:14;101947.75;;;14.86;84.45
36092;BME280;22147;52.388;13.390;2022-09-21T13:03:02;101949.22;;;15.01;85.03
36092;BME280;22147;52.388;13.390;2022-09-21T13:09:26;101936.56;;;15.95;78.34
36092;BME280;22147;52.388;13.390;2022-09-21T13:12:05;101941.94;;;16.08;75.87
36092;BME280;22147;52.388;13.390;2022-09-21T13:14:52;101934.50;;;16.42;75.78
36092;BME280;22147;52.388;13.390;2022-09-21T13:17:31;101946.03;;;16.49;76.33
36092;BME280;22147;52.388;13.390;2022-09-21T13:20:20;101936.91;;;16.53;76.56
36092;BME280;22147;52.388;13.390;2022-09-21T13:22:57;101937.47;;;16.46;76.21
36092;BME280;22147;52.388;13.390;2022-09-21T13:25:31;101935.91;;;16.57;78.86
36092;BME280;22147;52.388;13.390;2022-09-21T13:47:55;101938.28;;;15.61;75.21
36092;BME280;22147;52.388;13.390;2022-09-21T13:50:38;101937.69;;;15.29;74.83
36092;BME280;22147;52.388;13.390;2022-09-21T13:53:33;101937.38;;;15.31;76.80
36092;BME280;22147;52.388;13.390;2022-09-21T13:56:16;101934.03;;;15.55;74.74
36092;BME280;22147;52.388;13.390;2022-09-21T13:58:51;101931.44;;;15.97;69.89
36092;BME280;22147;52.388;13.390;2022-09-21T14:01:32;101921.44;;;16.55;66.27
36092;BME280;22147;52.388;13.390;2022-09-21T14:04:35;101917.34;;;16.95;65.16
36092;BME280;22147;52.388;13.390;2022-09-21T14:07:06;101914.66;;;17.19;63.12
36092;BME280;22147;52.388;13.390;2022-09-21T14:09:55;101922.75;;;17.33;63.88
36092;BME280;22147;52.388;13.390;2022-09-21T14:12:38;101915.50;;;17.65;63.27
36092;BME280;22147;52.388;13.390;2022-09-21T14:18:35;101918.00;;;16.71;65.48
36092;BME280;22147;52.388;13.390;2022-09-21T14:21:16;101916.75;;;16.00;68.68
36092;BME280;22147;52.388;13.390;2022-09-21T14:29:47;101914.19;;;14.78;75.56
36092;BME280;22147;52.388;13.390;2022-09-21T14:32:27;101912.00;;;14.57;76.06
36092;BME280;22147;52.388;13.390;2022-09-21T14:35:10;101913.75;;;14.36;78.53
36092;BME280;22147;52.388;13.390;2022-09-21T14:37:54;101901.88;;;14.21;80.22
36092;BME280;22147;52.388;13.390;2022-09-21T14:40:30;101911.22;;;14.08;84.27
36092;BME280;22147;52.388;13.390;2022-09-21T14:43:15;101899.06;;;14.13;82.20
36092;BME280;22147;52.388;13.390;2022-09-21T14:49:28;101899.13;;;14.48;84.54
36092;BME280;22147;52.388;13.390;2022-09-21T14:57:21;101895.00;;;16.05;79.05
36092;BME280;22147;52.388;13.390;2022-09-21T15:00:14;101889.81;;;16.67;69.79
36092;BME280;22147;52.388;13.390;2022-09-21T15:06:15;101895.31;;;18.09;61.13
36092;BME280;22147;52.388;13.390;2022-09-21T15:12:59;101887.53;;;19.24;55.00
36092;BME280;22147;52.388;13.390;2022-09-21T15:19:21;101886.00;;;20.18;52.37
36092;BME280;22147;52.388;13.390;2022-09-21T15:22:10;101880.03;;;19.72;53.79
36092;BME280;22147;52.388;13.390;2022-09-21T15:24:54;101883.97;;;18.70;55.28
36092;BME280;22147;52.388;13.390;2022-09-21T15:27:27;101877.03;;;17.78;57.68
36092;BME280;22147;52.388;13.390;2022-09-21T15:30:04;101873.22;;;17.04;60.21
36092;BME280;22147;52.388;13.390;2022-09-21T15:32:42;101874.72;;;16.80;63.93
36092;BME280;22147;52.388;13.390;2022-09-21T15:35:22;101874.56;;;16.35;63.86
36092;BME280;22147;52.388;13.390;2022-09-21T15:37:56;101872.28;;;15.98;64.12
36092;BME280;22147;52.388;13.390;2022-09-21T15:40:35;101870.69;;;15.88;65.12
36092;BME280;22147;52.388;13.390;2022-09-21T15:45:56;101865.03;;;16.48;65.87
36092;BME280;22147;52.388;13.390;2022-09-21T15:48:31;101870.47;;;16.53;64.63
36092;BME280;22147;52.388;13.390;2022-09-21T15:51:24;101874.66;;;15.87;66.45
36092;BME280;22147;52.388;13.390;2022-09-21T15:54:08;101875.31;;;15.29;69.71
36092;BME280;22147;52.388;13.390;2022-09-21T15:56:47;101875.84;;;14.87;70.27
36092;BME280;22147;52.388;13.390;2022-09-21T15:59:19;101866.63;;;14.60;73.89
36092;BME280;22147;52.388;13.390;2022-09-21T16:01:52;101880.22;;;14.36;79.77
36092;BME280;22147;52.388;13.390;2022-09-21T16:04:25;101882.00;;;14.14;76.52
36092;BME280;22147;52.388;13.390;2022-09-21T16:07:24;101874.72;;;14.04;79.68
36092;BME280;22147;52.388;13.390;2022-09-21T16:10:02;101887.31;;;13.84;81.33
36092;BME280;22147;52.388;13.390;2022-09-21T16:12:49;101883.91;;;13.65;87.41
36092;BME280;22147;52.388;13.390;2022-09-21T16:18:04;101879.47;;;13.33;92.32
36092;BME280;22147;52.388;13.390;2022-09-21T16:20:44;101891.16;;;13.12;95.66
36092;BME280;22147;52.388;13.390;2022-09-21T16:23:20;101897.72;;;12.94;95.71